Silver, Texas
Current Conditions -  °F | °C
As of 8:15 AM on Monday 26 Jan 2015 (Local Time) from KSWW Reporting Station
Clear Clear  
Wind Chill: 36°   Ceiling: Unl
Heat Index: 42°   Visibility: 10mi
Dew Point: 30°   Wind: 12mph
Humidity: 63%   Direction: 240°WSW
Pressure: 30.29"   Gusts: NA
Location:  32.07°N, 100.68°W
Report Text: KSWW 261415Z AUTO 24010KT 10SM CLR 06/M01 A3029 RMK AO2 T00561009
Loading
Personal Weather Stations






























Interactive Weather Map New forecast layout! Learn more

10-Day Weather Forecast

Advertisements
Track Severe Weather on mobile